Flight Track Log - Related Links

Times and Time Zones

All times are in EDT time to prevent confusion due to time zone crossing. See the SWA2130 flight status page for this flight to view local times or setup timezone preferences in your user account.

Time Position Orientation Groundspeed Altitude Reporting Facility
EDT Latitude Longitude Course Direction KTS MPH feet Rate Location/Type
Mon 08:52:16 PM 33.9431 -118.4917 235° Southwest 208 239 2,200  Level Los Angeles Center
Mon 08:53:18 PM 33.9036 -118.5589 235° Southwest 258 297 5,500 3,242 Climbing Los Angeles Center
Mon 08:54:20 PM 33.8222 -118.5508 175° South 279 321 8,900 3,268 Climbing Los Angeles Center
Mon 08:55:21 PM 33.7400 -118.5317 169° South 303 349 12,200 2,976 Climbing Los Angeles Center
Mon 08:56:23 PM 33.6767 -118.4542 134° Southeast 360 414 15,000 3,097 Climbing Los Angeles Center
Mon 08:57:25 PM 33.6450 -118.3383 108° East 377 434 18,600 3,532 Climbing Los Angeles Center
Mon 08:58:27 PM 33.6439 -118.1847 90° East 395 455 22,300 3,171 Climbing Los Angeles Center
Mon 08:59:28 PM 33.6442 -118.0517 90° East 403 464 25,100 2,634 Climbing Los Angeles Center
Mon 09:00:30 PM 33.6439 -117.9133 90° East 415 478 27,700 2,323 Climbing Los Angeles Center
Mon 09:01:32 PM 33.6436 -117.7711 90° East 426 490 29,900 1,951 Climbing Los Angeles Center
Mon 09:02:33 PM 33.6428 -117.6269 90° East 433 498 31,700 1,805 Climbing Los Angeles Center
Mon 09:03:35 PM 33.6419 -117.4767 90° East 448 516 33,600 2,129 Climbing Los Angeles Center
Mon 09:04:37 PM 33.6408 -117.2992 90° East 447 514 36,100 2,049 Climbing Los Angeles Center
Mon 09:05:38 PM 33.6253 -117.1542 97° East 440 506 37,800 1,317 Climbing Los Angeles Center
Mon 09:06:40 PM 33.6100 -117.0081 97° East 442 509 38,800 927 Climbing Los Angeles Center
Mon 09:07:41 PM 33.5981 -116.8883 97° East 450 518 39,700 878 Climbing Los Angeles Center
Mon 09:08:43 PM 33.5800 -116.7078 97° East 460 529 40,600 629 Climbing Los Angeles Center
Mon 09:09:45 PM 33.5631 -116.5547 98° East 462 532 41,000 194 Climbing Los Angeles Center
Mon 09:10:47 PM 33.5464 -116.4028 97° East 459 528 41,000  Level Los Angeles Center
Mon 09:11:48 PM 33.5269 -116.2228 97° East 454 522 41,000  Level Los Angeles Center
Mon 09:12:50 PM 33.5103 -116.0733 98° East 452 520 41,000  Level Los Angeles Center
Mon 09:13:52 PM 33.4944 -115.9231 97° East 454 522 41,000  Level Los Angeles Center
Mon 09:14:53 PM 33.4778 -115.7750 98° East 451 519 41,000  Level Los Angeles Center
Mon 09:15:55 PM 33.4608 -115.6256 98° East 452 520 41,000  Level Los Angeles Center
Mon 09:16:57 PM 33.4436 -115.4783 98° East 449 517 41,000  Level Los Angeles Center
Mon 09:17:59 PM 33.4261 -115.3297 98° East 450 518 41,000  Level Los Angeles Center
Mon 09:19:00 PM 33.4086 -115.1811 98° East 451 519 41,000  Level Los Angeles Center
Mon 09:20:02 PM 33.3869 -115.0033 98° East 450 518 41,000  Level Los Angeles Center
Mon 09:21:04 PM 33.3683 -114.8528 98° East 463 533 41,000  Level Los Angeles Center
Mon 09:22:05 PM 33.3503 -114.7044 98° East 453 521 41,000  Level Los Angeles Center
Mon 09:23:07 PM 33.3314 -114.5564 99° East 456 525 41,000  Level Los Angeles Center
Mon 09:24:09 PM 33.3131 -114.4069 98° East 451 519 41,000  Level Los Angeles Center
Mon 09:25:15 PM 33.2956 -114.2339 97° East 455 524 41,000  Level Albuquerque Center
Mon 09:26:17 PM 33.2769 -114.0839 98° East 455 524 41,000  Level Albuquerque Center
Mon 09:27:18 PM 33.2581 -113.9347 99° East 456 525 41,000 -295 Level Albuquerque Center
Mon 09:28:19 PM 33.2378 -113.7833 99° East 460 529 40,400 -829 Descending Albuquerque Center
Mon 09:29:21 PM 33.2189 -113.6378 99° East 449 517 39,300 -1,366 Descending Albuquerque Center
Mon 09:30:22 PM 33.1994 -113.4906 99° East 448 516 37,600 -1,131 Descending Albuquerque Center
Mon 09:31:23 PM 33.1800 -113.3481 99° East 440 506 37,000 -293 Descending Albuquerque Center
Mon 09:32:25 PM 33.1606 -113.2047 99° East 437 503 37,000  Level Albuquerque Center
Mon 09:33:26 PM 33.1372 -113.0314 99° East 438 504 37,000  Level Albuquerque Center
Mon 09:34:27 PM 33.1175 -112.8878 99° East 438 504 37,000  Level Albuquerque Center
Mon 09:35:29 PM 33.0983 -112.7456 99° East 435 501 37,000  Level Albuquerque Center
Mon 09:36:30 PM 33.0786 -112.6033 99° East 434 499 37,000  Level Albuquerque Center
Mon 09:37:31 PM 33.0581 -112.4600 100° East 436 502 37,000  Level Albuquerque Center
Mon 09:38:33 PM 33.0378 -112.3164 100° East 439 505 37,000  Level Albuquerque Center
Mon 09:39:34 PM 33.0164 -112.1633 99° East 439 505 37,000  Level Albuquerque Center
Mon 09:40:35 PM 32.9967 -112.0214 99° East 438 504 37,000  Level Albuquerque Center
Mon 09:41:37 PM 32.9756 -111.8789 100° East 440 506 37,000  Level Albuquerque Center
Mon 09:42:38 PM 32.9556 -111.7375 100° East 437 503 37,000  Level Albuquerque Center
Mon 09:43:39 PM 32.9353 -111.5961 100° East 437 503 37,000  Level Albuquerque Center
Mon 09:44:41 PM 32.9133 -111.4558 101° East 434 499 37,000  Level Albuquerque Center
Mon 09:45:42 PM 32.8875 -111.2869 100° East 434 499 37,000  Level Albuquerque Center
Mon 09:46:43 PM 32.8669 -111.1456 100° East 436 502 37,000  Level Albuquerque Center
Mon 09:47:45 PM 32.8458 -111.0053 100° East 434 499 37,000  Level Albuquerque Center
Mon 09:48:46 PM 32.8236 -110.8625 100° East 437 503 37,000  Level Albuquerque Center
Mon 09:49:47 PM 32.8028 -110.7200 100° East 439 505 37,000  Level Albuquerque Center
Mon 09:50:49 PM 32.7803 -110.5800 101° East 439 505 37,000  Level Albuquerque Center
Mon 09:51:50 PM 32.7572 -110.4394 101° East 439 505 37,000  Level Albuquerque Center
Mon 09:52:51 PM 32.7347 -110.2967 101° East 442 509 37,000  Level Albuquerque Center
Mon 09:53:53 PM 32.7083 -110.1261 100° East 442 509 37,000  Level Albuquerque Center
Mon 09:54:54 PM 32.6836 -109.9831 102° East 446 513 37,000  Level Albuquerque Center
Mon 09:55:55 PM 32.6611 -109.8403 101° East 446 513 37,000  Level Albuquerque Center
Mon 09:56:57 PM 32.6375 -109.6975 101° East 447 514 37,000  Level Albuquerque Center
Mon 09:57:00 PM 32.6361 -109.6924 101° East  Level FlightAware Approximate
Mon 09:59:00 PM 32.5844 -109.3836 101° East 444 511 37,000  Level Albuquerque Center
Mon 10:00:02 PM 32.5614 -109.2436 101° East 441 507 37,000  Level Albuquerque Center
Mon 10:01:04 PM 32.5367 -109.1036 102° East 440 506 37,000  Level Albuquerque Center
Mon 10:02:05 PM 32.5142 -108.9642 101° East 439 505 37,000  Level Albuquerque Center
Mon 10:03:07 PM 32.4894 -108.8247 102° East 440 506 37,000 -244 Level Albuquerque Center
Mon 10:04:08 PM 32.4611 -108.6572 101° East 439 505 36,500 -689 Descending Albuquerque Center
Mon 10:05:09 PM 32.4364 -108.5183 102° East 438 504 35,600 -1,024 Descending Albuquerque Center
Mon 10:06:11 PM 32.4153 -108.3903 101° East 435 501 34,400 -1,268 Descending Albuquerque Center
Mon 10:07:12 PM 32.3906 -108.2494 102° East 437 503 33,000 -683 Descending Albuquerque Center
Mon 10:08:14 PM 32.3606 -108.0825 102° East 436 502 33,000  Level Albuquerque Center
Mon 10:09:15 PM 32.3361 -107.9447 102° East 432 497 33,000 -1,328 Level Albuquerque Center
Mon 10:10:16 PM 32.3117 -107.8069 102° East 431 496 30,300 -2,585 Descending Albuquerque Center
Mon 10:11:18 PM 32.2864 -107.6703 102° East 431 496 27,700 -2,341 Descending Albuquerque Center
Mon 10:12:19 PM 32.2600 -107.5394 103° East 419 482 25,500 -2,098 Descending Albuquerque Center
Mon 10:13:21 PM 32.2294 -107.4128 106° East 399 459 23,400 -2,000 Descending Albuquerque Center
Mon 10:14:22 PM 32.2003 -107.2944 106° East 382 440 21,400 -2,115 Descending Albuquerque Center
Mon 10:15:23 PM 32.1706 -107.1614 105° East 368 423 19,100 -2,094 Descending Albuquerque Center
Mon 10:16:08 PM 32.1514 -107.0828 106° East 354 407 17,700 -1,839 Descending Albuquerque Center
Mon 10:16:25 PM 32.1447 -107.0522 104° East 356 410 17,200 -1,833 Descending Albuquerque Center
Mon 10:17:20 PM 32.1197 -106.9503 106° East 343 395 15,500 -1,810 Descending Albuquerque Center
Mon 10:18:21 PM 32.0925 -106.8442 107° East 335 386 13,700 -1,820 Descending Albuquerque Center
Mon 10:19:22 PM 32.0675 -106.7400 106° East 333 383 11,800 -1,628 Descending Albuquerque Center
Mon 10:20:30 PM 32.0428 -106.6361 106° East 321 369 10,200 -1,108 Descending Albuquerque Center
Mon 10:21:32 PM 32.0200 -106.5439 106° East 295 339 9,400 -584 Descending Albuquerque Center
Mon 10:22:23 PM 31.9839 -106.4628 118° Southeast 250 288 9,100 -589 Descending Albuquerque Center
Mon 10:23:24 PM 31.9492 -106.4014 124° Southeast 215 247 8,300 -885 Descending Albuquerque Center
Mon 10:24:25 PM 31.9058 -106.3619 142° Southeast 184 212 7,300 -1,339 Descending Albuquerque Center
Mon 10:25:25 PM 31.8678 -106.3289 144° Southeast 159 183 5,600 -1,438 Descending Albuquerque Center
Mon 10:26:26 PM 31.8358 -106.3519 212° Southwest 141 162 4,400 -1,180 Descending Albuquerque Center
Mon 10:28:00 PM 31.8000 -106.3667 90° East  Level FlightAware Approximate
Mon 10:35:00 PM 31.8072 -106.3764 90° East  Level Estimated
Mon 10:36:00 PM 31.8072 -106.3764 90° East  Level Estimated
Mon 10:37:00 PM 31.8072 -106.3764 90° East  Level Estimated
Mon 10:38:00 PM 31.8072 -106.3764 90° East  Level Estimated
Mon 10:39:00 PM 31.8072 -106.3764 90° East  Level Estimated

Login

Don't have an account? Register now (free) for customized features, flight alerts, and more!